Weather at Florina Airfield

Public forecast

Using degrees Celsius for public forecast. Weather courtesy of forecast.io.

Closest aviation weather report (METAR) to Florina Airfield

Closest report is Kozani National Airport Filippos, 36.2 nm (67.1 km) SSE.

2024/05/28 16:20 (retrieved 31 minutes ago)

LGKZ 281620Z AUTO 27007KT 230V300 //// // ////// 20/05 Q1014 RE//

Closest aviation forecast (TAF) to Florina Airfield

Closest forecast is Ohrid St. Paul the Apostle Airport, 38.6 nm (71.5 km) NW.

2024/05/28 15:26 (retrieved 1 hour ago)

TAF LWOH 281420Z 2815/2915 34008KT 9999 SCT050 BKN090 TEMPO 2815/2820 VRB15KT TSRA FEW033CB BKN040